Richards Grove, Pennsylvania
Current Conditions -  °F | °C
As of 12:54 PM on Sunday 21 Dec 2014 (Local Time) from KIPT Reporting Station
Overcast Overcast  
Wind Chill: 30°   Ceiling: 3200
Heat Index: 34°   Visibility: 10mi
Dew Point: 19°   Wind: 5mph
Humidity: 54%   Direction: NA
Pressure: 30.3"   Gusts: NA
Location:  41.2442°N, 76.522°W
Report Text: KIPT 211754Z VRB04KT 10SM OVC032 01/M07 A3030 RMK AO2 SLP268 T00111072 10011 21011 58012
Loading
Personal Weather Stations






























Interactive Weather Map New forecast layout! Learn more

10-Day Weather Forecast

Advertisements
Track Severe Weather on mobile